createdAt,value
2019-05-01T00:01:06.393Z,83.50
2019-05-01T00:03:54.572Z,83.40
2019-05-01T00:06:28.699Z,83.30
2019-05-01T00:08:58.499Z,83.40
2019-05-01T00:11:27.815Z,83.60
2019-05-01T00:13:57.077Z,84.20
2019-05-01T00:16:26.385Z,84.30
2019-05-01T00:18:56.751Z,84.40
2019-05-01T00:21:26.325Z,84.40
2019-05-01T00:23:55.632Z,84.40
2019-05-01T00:26:24.935Z,84.60
2019-05-01T00:28:54.573Z,84.60
2019-05-01T00:31:24.192Z,85.10
2019-05-01T00:33:53.331Z,85.10
2019-05-01T00:36:22.609Z,85.30
2019-05-01T00:38:52.241Z,85.60
2019-05-01T00:41:21.587Z,85.70
2019-05-01T00:43:51.416Z,85.90
2019-05-01T00:46:20.578Z,86.00
2019-05-01T00:48:49.847Z,86.00
2019-05-01T00:51:18.998Z,86.20
2019-05-01T00:53:48.247Z,86.20
2019-05-01T00:56:34.486Z,86.20
2019-05-01T00:59:23.034Z,86.70
2019-05-01T01:02:14.229Z,86.70
2019-05-01T01:04:43.599Z,86.80
2019-05-01T01:07:13.279Z,86.70
2019-05-01T01:09:42.835Z,87.00
2019-05-01T01:12:12.103Z,87.10
2019-05-01T01:14:41.986Z,87.20
2019-05-01T01:17:11.486Z,87.50
2019-05-01T01:19:40.687Z,87.40
2019-05-01T01:22:10.185Z,87.60
2019-05-01T01:24:39.487Z,87.60
2019-05-01T01:27:08.680Z,87.90
2019-05-01T01:29:37.991Z,88.30
2019-05-01T01:32:07.204Z,88.50
2019-05-01T01:34:36.532Z,88.90
2019-05-01T01:37:05.864Z,88.80
2019-05-01T01:39:35.098Z,88.90
2019-05-01T01:42:04.776Z,89.00
2019-05-01T01:44:49.381Z,89.30
2019-05-01T01:47:18.709Z,89.40
2019-05-01T01:49:48.131Z,89.50
2019-05-01T01:52:17.514Z,89.80
2019-05-01T01:54:47.509Z,89.80
2019-05-01T01:57:16.857Z,89.90
2019-05-01T01:59:46.130Z,90.10
2019-05-01T02:02:34.339Z,90.40
2019-05-01T02:05:08.354Z,90.70
2019-05-01T02:07:37.800Z,90.80
2019-05-01T02:10:08.366Z,90.90
2019-05-01T02:12:38.777Z,91.10
2019-05-01T02:15:08.669Z,91.10
2019-05-01T02:17:37.962Z,91.10
2019-05-01T02:20:09.253Z,91.20
2019-05-01T02:22:38.503Z,91.40
2019-05-01T02:25:09.575Z,91.80
2019-05-01T02:27:54.560Z,91.60
2019-05-01T02:30:24.455Z,92.20
2019-05-01T02:32:55.505Z,93.10
2019-05-01T02:35:30.181Z,93.80
2019-05-01T02:37:58.549Z,94.00
2019-05-01T02:40:53.410Z,94.30
2019-05-01T02:43:26.156Z,95.10
2019-05-01T02:45:57.894Z,94.80
2019-05-01T02:48:29.352Z,94.90
2019-05-01T02:51:02.174Z,95.60
2019-05-01T02:53:33.604Z,96.30
2019-05-01T02:56:18.308Z,97.10
2019-05-01T02:58:50.153Z,97.60
2019-05-01T03:01:19.352Z,97.70
2019-05-01T03:03:50.607Z,98.00
2019-05-01T03:06:20.887Z,98.10
2019-05-01T03:08:51.385Z,97.80
2019-05-01T03:11:20.572Z,97.50
2019-05-01T03:13:52.203Z,97.60
2019-05-01T03:16:23.724Z,98.10
2019-05-01T03:18:55.958Z,97.80
2019-05-01T03:21:40.166Z,97.70
2019-05-01T03:24:12.311Z,97.70
2019-05-01T03:26:42.176Z,97.90
2019-05-01T03:29:11.521Z,97.50
2019-05-01T03:31:41.110Z,97.70
2019-05-01T03:34:10.664Z,97.30
2019-05-01T03:36:39.960Z,97.30
2019-05-01T03:39:09.182Z,97.10
2019-05-01T03:41:39.034Z,97.80
2019-05-01T03:44:08.933Z,98.20
2019-05-01T03:46:38.501Z,98.80
2019-05-01T03:49:07.754Z,98.50
2019-05-01T03:51:37.473Z,99.30
2019-05-01T03:54:07.276Z,99.30
2019-05-01T03:56:36.985Z,99.50
2019-05-01T03:59:06.844Z,99.60
2019-05-01T04:02:06.830Z,99.80
2019-05-01T04:04:36.469Z,99.80
2019-05-01T04:07:05.825Z,99.80
2019-05-01T04:09:36.160Z,99.80
2019-05-01T04:12:05.302Z,99.80
2019-05-01T04:14:38.905Z,99.80
2019-05-01T04:17:12.271Z,99.80
2019-05-01T04:19:41.743Z,99.80
2019-05-01T04:22:12.644Z,99.80
2019-05-01T04:24:42.968Z,99.80
2019-05-01T04:27:18.061Z,99.80
2019-05-01T04:29:57.973Z,99.80
2019-05-01T04:32:30.417Z,99.80
2019-05-01T04:35:22.234Z,99.80
2019-05-01T04:37:52.988Z,99.80
2019-05-01T04:40:22.627Z,99.80
2019-05-01T04:42:52.222Z,99.80
2019-05-01T04:45:23.125Z,99.80
2019-05-01T04:47:52.928Z,99.80
2019-05-01T04:50:22.492Z,99.80
2019-05-01T04:52:52.753Z,99.80
2019-05-01T04:55:23.758Z,99.80
2019-05-01T04:57:53.350Z,99.80
2019-05-01T05:00:22.601Z,99.80
2019-05-01T05:03:04.574Z,99.80
2019-05-01T05:05:28.967Z,99.80
2019-05-01T05:07:58.243Z,99.80
2019-05-01T05:10:28.189Z,99.80
2019-05-01T05:13:05.411Z,99.80
2019-05-01T05:16:09.367Z,99.80
2019-05-01T05:18:38.817Z,99.80
2019-05-01T05:21:09.222Z,99.80
2019-05-01T05:23:38.679Z,99.80
2019-05-01T05:26:08.035Z,99.80
2019-05-01T05:28:38.856Z,99.80
2019-05-01T05:31:10.995Z,99.80
2019-05-01T05:33:41.851Z,99.80
2019-05-01T05:36:13.865Z,99.80
2019-05-01T05:39:02.198Z,99.80
2019-05-01T05:41:33.005Z,99.80
2019-05-01T05:44:02.516Z,99.80
2019-05-01T05:46:32.215Z,99.60
2019-05-01T05:49:02.012Z,98.90
2019-05-01T05:51:47.177Z,98.90
2019-05-01T05:54:45.887Z,99.00
2019-05-01T05:57:26.053Z,98.70
2019-05-01T06:00:01.383Z,97.70
2019-05-01T06:02:47.581Z,96.80
2019-05-01T06:05:31.731Z,96.10
2019-05-01T06:08:17.770Z,96.50
2019-05-01T06:11:09.040Z,96.50
2019-05-01T06:13:58.856Z,95.50
2019-05-01T06:16:51.983Z,95.50
2019-05-01T06:19:55.748Z,95.30
2019-05-01T06:22:54.050Z,95.30
2019-05-01T06:25:33.075Z,95.60
2019-05-01T06:28:02.760Z,95.00
2019-05-01T06:30:33.800Z,94.70
2019-05-01T06:33:04.113Z,94.70
2019-05-01T06:35:38.134Z,94.90
2019-05-01T06:38:10.968Z,95.30
2019-05-01T06:40:41.568Z,95.40
2019-05-01T06:43:25.545Z,95.20
2019-05-01T06:46:13.493Z,95.10
2019-05-01T06:48:48.931Z,95.20
2019-05-01T06:51:37.608Z,94.20
2019-05-01T06:54:11.227Z,93.90
2019-05-01T06:56:42.437Z,93.80
2019-05-01T06:59:12.444Z,93.90
2019-05-01T07:01:41.978Z,92.70
2019-05-01T07:04:13.991Z,92.80
2019-05-01T07:06:42.630Z,92.90
2019-05-01T07:09:17.266Z,92.50
2019-05-01T07:11:47.656Z,92.70
2019-05-01T07:14:16.516Z,92.20
2019-05-01T07:16:46.031Z,91.40
2019-05-01T07:19:16.587Z,91.00
2019-05-01T07:21:45.870Z,90.40
2019-05-01T07:24:15.596Z,90.10
2019-05-01T07:26:47.994Z,90.40
2019-05-01T07:29:18.317Z,90.20
2019-05-01T07:31:47.599Z,90.00
2019-05-01T07:34:17.085Z,89.60
2019-05-01T07:36:50.233Z,89.70
2019-05-01T07:39:17.552Z,89.00
2019-05-01T07:41:47.436Z,88.90
2019-05-01T07:44:30.022Z,88.90
2019-05-01T07:47:26.038Z,88.80
2019-05-01T07:49:58.526Z,88.30
2019-05-01T07:52:29.399Z,87.50
2019-05-01T07:54:59.383Z,87.20
2019-05-01T07:57:29.154Z,87.70
2019-05-01T08:00:03.227Z,87.10
2019-05-01T08:02:30.993Z,85.80
2019-05-01T08:05:05.032Z,86.10
2019-05-01T08:07:33.596Z,86.10
2019-05-01T08:10:02.975Z,85.80
2019-05-01T08:12:32.535Z,85.00
2019-05-01T08:15:02.098Z,83.40
2019-05-01T08:17:33.804Z,82.10
2019-05-01T08:20:22.095Z,79.00
2019-05-01T08:22:51.374Z,79.20
2019-05-01T08:25:20.990Z,77.00
2019-05-01T08:28:05.185Z,76.40
2019-05-01T08:30:56.902Z,74.70
2019-05-01T08:33:44.946Z,75.00
2019-05-01T08:36:14.898Z,74.00
2019-05-01T08:38:45.338Z,75.00
2019-05-01T08:41:14.596Z,76.10
2019-05-01T08:43:48.780Z,76.60
2019-05-01T08:46:36.060Z,73.10
2019-05-01T08:49:28.241Z,74.30
2019-05-01T08:52:22.612Z,76.20
2019-05-01T08:55:15.043Z,76.20
2019-05-01T09:03:08.607Z,74.00
2019-05-01T09:06:50.092Z,75.40
2019-05-01T09:09:25.183Z,75.10
2019-05-01T09:12:46.827Z,74.00
2019-05-01T09:15:20.777Z,74.00
2019-05-01T09:17:54.970Z,74.30
2019-05-01T09:24:00.670Z,74.90
2019-05-01T09:26:50.148Z,73.20
2019-05-01T09:29:25.266Z,72.20
2019-05-01T09:31:54.976Z,72.30
2019-05-01T09:48:46.283Z,71.50
2019-05-01T09:51:49.302Z,68.50
2019-05-01T10:00:27.694Z,67.00
2019-05-01T10:02:57.043Z,65.70
2019-05-01T10:06:06.840Z,67.80
2019-05-01T10:08:40.045Z,66.60
2019-05-01T10:11:11.210Z,65.10
2019-05-01T10:13:53.653Z,65.20
2019-05-01T10:20:41.625Z,64.40
2019-05-01T10:35:05.995Z,61.90
2019-05-01T10:38:35.350Z,63.30
2019-05-01T10:41:10.661Z,59.30
2019-05-01T11:17:24.901Z,54.70
2019-05-01T11:19:54.410Z,52.70
2019-05-01T11:22:24.249Z,50.10
2019-05-01T11:24:56.881Z,51.30
2019-05-01T11:27:26.112Z,48.60
2019-05-01T11:29:55.497Z,46.30
2019-05-01T11:32:34.344Z,47.40
2019-05-01T11:35:21.820Z,46.60
2019-05-01T11:38:10.417Z,48.30
2019-05-01T11:40:42.306Z,49.60
2019-05-01T11:43:11.872Z,48.50
2019-05-01T11:45:43.817Z,49.20
2019-05-01T11:48:13.618Z,46.50
2019-05-01T11:50:43.328Z,47.90
2019-05-01T11:53:13.058Z,47.10
2019-05-01T11:55:43.146Z,46.20
2019-05-01T11:58:12.726Z,41.50
2019-05-01T12:03:22.453Z,37.80
2019-05-01T12:05:56.157Z,34.90
2019-05-01T12:08:26.152Z,33.00
2019-05-01T12:10:57.365Z,32.30
2019-05-01T12:13:43.046Z,32.10
2019-05-01T12:16:08.363Z,30.50
2019-05-01T12:18:37.837Z,28.80
2019-05-01T12:21:07.225Z,30.00
2019-05-01T12:23:36.767Z,30.30
2019-05-01T12:26:06.183Z,30.40
2019-05-01T12:28:35.742Z,31.30
2019-05-01T12:31:05.324Z,28.40
2019-05-01T12:33:34.760Z,30.50
2019-05-01T12:36:05.623Z,29.60
2019-05-01T12:38:35.040Z,28.20
2019-05-01T12:44:06.752Z,28.30
2019-05-01T12:46:56.384Z,28.60
2019-05-01T12:49:27.820Z,28.90
2019-05-01T12:52:10.244Z,30.90
2019-05-01T12:54:41.684Z,29.20
2019-05-01T12:57:16.453Z,32.10
2019-05-01T12:59:45.764Z,30.50
2019-05-01T13:02:31.210Z,33.90
2019-05-01T13:05:00.732Z,32.80
2019-05-01T13:07:30.389Z,33.40
2019-05-01T13:10:14.946Z,36.60
2019-05-01T13:16:07.422Z,34.90
2019-05-01T13:18:36.603Z,37.90
2019-05-01T13:21:06.176Z,35.50
2019-05-01T13:23:35.680Z,35.70
2019-05-01T13:26:24.254Z,34.40
2019-05-01T13:29:02.047Z,32.90
2019-05-01T13:31:53.692Z,32.70
2019-05-01T13:34:23.260Z,30.10
2019-05-01T13:37:02.382Z,31.90
2019-05-01T13:39:24.180Z,31.50
2019-05-01T13:41:53.449Z,30.90
2019-05-01T13:44:22.642Z,30.70
2019-05-01T13:46:52.266Z,30.10
2019-05-01T13:49:27.623Z,30.70
2019-05-01T13:51:57.211Z,30.80
2019-05-01T13:54:26.877Z,31.20
2019-05-01T13:56:56.523Z,32.40
2019-05-01T13:59:26.099Z,32.50
2019-05-01T14:01:55.664Z,32.30
2019-05-01T14:04:26.755Z,34.60
2019-05-01T14:06:56.140Z,34.60
2019-05-01T14:09:29.763Z,34.60
2019-05-01T14:11:59.396Z,35.00
2019-05-01T14:14:28.703Z,37.30
2019-05-01T14:16:57.971Z,40.10
2019-05-01T14:19:27.658Z,40.70
2019-05-01T14:22:12.857Z,38.20
2019-05-01T14:24:53.641Z,41.30
2019-05-01T14:27:22.940Z,42.80
2019-05-01T14:29:52.210Z,41.30
2019-05-01T14:32:21.407Z,41.30
2019-05-01T14:34:50.748Z,42.30
2019-05-01T14:37:29.534Z,42.60
2019-05-01T14:39:51.082Z,44.20
2019-05-01T14:42:20.364Z,42.80
2019-05-01T14:44:50.834Z,40.00
2019-05-01T14:47:20.192Z,40.50
2019-05-01T14:49:49.428Z,38.10
2019-05-01T14:52:18.852Z,35.10
2019-05-01T14:54:48.388Z,33.70
2019-05-01T14:57:17.702Z,32.00
2019-05-01T14:59:48.730Z,32.60
2019-05-01T15:05:20.208Z,33.40
2019-05-01T15:07:49.540Z,34.60
2019-05-01T15:10:18.928Z,32.80
2019-05-01T15:12:55.929Z,33.30
2019-05-01T15:15:44.237Z,34.70
2019-05-01T15:18:47.339Z,36.50
2019-05-01T15:21:16.659Z,39.70
2019-05-01T15:23:53.391Z,40.30
2019-05-01T15:26:17.279Z,41.40
2019-05-01T15:28:46.626Z,41.30
2019-05-01T15:31:16.267Z,43.20
2019-05-01T15:33:45.586Z,43.70
2019-05-01T15:36:14.851Z,47.20
2019-05-01T15:38:51.248Z,48.40
2019-05-01T15:41:51.536Z,48.20
2019-05-01T15:44:26.671Z,49.10
2019-05-01T15:46:57.723Z,49.30
2019-05-01T15:49:27.645Z,48.60
2019-05-01T15:51:59.291Z,44.00
2019-05-01T15:54:39.928Z,42.70
2019-05-01T15:57:41.721Z,43.50
2019-05-01T16:00:14.018Z,44.40
2019-05-01T16:03:13.755Z,44.10
2019-05-01T16:09:26.641Z,43.10
2019-05-01T16:12:14.925Z,42.20
2019-05-01T16:14:46.706Z,41.70
2019-05-01T16:17:16.319Z,41.10
2019-05-01T16:19:45.886Z,41.10
2019-05-01T16:22:15.265Z,42.30
2019-05-01T16:24:44.942Z,38.70
2019-05-01T16:27:14.359Z,39.80
2019-05-01T16:29:43.637Z,38.90
2019-05-01T16:32:12.941Z,39.00
2019-05-01T16:34:42.329Z,37.80
2019-05-01T16:37:12.029Z,38.60
2019-05-01T16:39:58.817Z,36.80
2019-05-01T16:42:46.385Z,36.00
2019-05-01T16:45:15.867Z,34.60
2019-05-01T16:47:45.437Z,36.20
2019-05-01T16:50:16.477Z,34.70
2019-05-01T16:52:45.864Z,36.20
2019-05-01T16:55:16.709Z,33.70
2019-05-01T16:57:46.549Z,35.50
2019-05-01T17:00:21.168Z,32.00
2019-05-01T17:03:05.132Z,31.60
2019-05-01T17:05:53.446Z,31.40
2019-05-01T17:08:53.154Z,31.50
2019-05-01T17:11:28.720Z,32.10
2019-05-01T17:13:58.030Z,33.00
2019-05-01T17:16:27.509Z,34.10
2019-05-01T17:18:56.775Z,36.90
2019-05-01T17:21:26.390Z,39.30
2019-05-01T17:23:56.007Z,43.00
2019-05-01T17:26:28.388Z,44.50
2019-05-01T17:29:03.274Z,47.30
2019-05-01T17:31:32.704Z,50.20
2019-05-01T17:34:02.113Z,51.40
2019-05-01T17:36:31.517Z,53.40
2019-05-01T17:39:01.292Z,55.00
2019-05-01T17:41:36.114Z,53.70
2019-05-01T17:47:57.801Z,55.60
2019-05-01T17:50:26.287Z,56.40
2019-05-01T17:52:55.613Z,57.70
2019-05-01T17:55:25.232Z,57.10
2019-05-01T17:57:54.621Z,58.00
2019-05-01T18:00:45.016Z,57.50
2019-05-01T18:03:33.784Z,57.80
2019-05-01T18:06:13.628Z,58.80
2019-05-01T18:08:42.904Z,58.20
2019-05-01T18:11:14.317Z,58.50
2019-05-01T18:13:44.031Z,59.80
2019-05-01T18:16:13.344Z,60.20
2019-05-01T18:18:43.256Z,61.10
2019-05-01T18:21:12.884Z,62.60
2019-05-01T18:24:07.200Z,63.40
2019-05-01T18:26:57.405Z,65.10
2019-05-01T18:29:40.058Z,65.60
2019-05-01T18:32:10.333Z,67.00
2019-05-01T18:34:39.921Z,66.70
2019-05-01T18:37:17.044Z,67.50
2019-05-01T18:39:52.501Z,68.10
2019-05-01T18:42:21.816Z,68.50
2019-05-01T18:44:53.226Z,68.90
2019-05-01T18:47:34.799Z,69.10
2019-05-01T18:50:10.314Z,70.00
2019-05-01T18:52:51.019Z,70.50
2019-05-01T18:55:31.564Z,70.70
2019-05-01T18:58:08.255Z,70.60
2019-05-01T19:00:37.492Z,70.70
2019-05-01T19:03:07.132Z,70.70
2019-05-01T19:08:18.795Z,71.60
2019-05-01T19:10:48.136Z,72.20
2019-05-01T19:13:18.393Z,71.90
2019-05-01T19:15:47.924Z,73.00
2019-05-01T19:18:17.930Z,73.20
2019-05-01T19:20:58.808Z,73.50
2019-05-01T19:23:22.118Z,73.60
2019-05-01T19:25:49.823Z,73.20
2019-05-01T19:28:19.793Z,73.20
2019-05-01T19:30:49.919Z,73.40
2019-05-01T19:33:19.103Z,74.00
2019-05-01T19:35:48.377Z,74.30
2019-05-01T19:38:18.772Z,75.30
2019-05-01T19:40:48.139Z,75.20
2019-05-01T19:43:17.527Z,75.10
2019-05-01T19:45:46.832Z,75.30
2019-05-01T19:48:16.612Z,75.90
2019-05-01T19:50:48.439Z,75.80
2019-05-01T19:53:17.106Z,76.10
2019-05-01T19:55:46.825Z,76.30
2019-05-01T19:58:16.545Z,77.00
2019-05-01T20:00:59.645Z,77.80
2019-05-01T20:03:30.557Z,78.30
2019-05-01T20:06:05.624Z,78.40
2019-05-01T20:08:32.447Z,78.80
2019-05-01T20:11:01.726Z,77.80
2019-05-01T20:13:30.998Z,77.60
2019-05-01T20:16:00.640Z,77.60
2019-05-01T20:18:29.998Z,78.00
2019-05-01T20:20:59.473Z,78.40
2019-05-01T20:23:31.435Z,78.60
2019-05-01T20:25:59.990Z,77.80
2019-05-01T20:28:29.457Z,78.60
2019-05-01T20:30:59.173Z,78.30
2019-05-01T20:33:28.412Z,78.90
2019-05-01T20:36:00.402Z,79.60
2019-05-01T20:38:29.247Z,79.80
2019-05-01T20:40:58.515Z,80.10
2019-05-01T20:43:27.946Z,80.30
2019-05-01T20:45:57.674Z,80.50
2019-05-01T20:48:27.670Z,81.40
2019-05-01T20:50:57.471Z,80.70
2019-05-01T20:56:24.764Z,80.00
2019-05-01T21:20:26.676Z,76.40
2019-05-01T21:22:55.841Z,77.10
2019-05-01T21:25:25.195Z,77.80
2019-05-01T21:27:54.460Z,78.40
2019-05-01T21:30:23.799Z,78.10
2019-05-01T21:32:54.203Z,77.50
2019-05-01T21:35:23.998Z,76.70
2019-05-01T21:37:53.419Z,76.10
2019-05-01T21:40:23.056Z,76.10
2019-05-01T21:42:55.802Z,76.20
2019-05-01T21:45:23.849Z,77.80
2019-05-01T21:47:53.191Z,78.20
2019-05-01T21:50:26.230Z,78.50
2019-05-01T21:52:58.060Z,78.10
2019-05-01T21:55:25.741Z,78.50
2019-05-01T21:57:56.936Z,78.60
2019-05-01T22:00:29.853Z,78.90
2019-05-01T22:02:59.178Z,79.00
2019-05-01T22:05:28.799Z,79.10
2019-05-01T22:07:58.645Z,79.10
2019-05-01T22:10:29.337Z,79.30
2019-05-01T22:12:58.790Z,79.50
2019-05-01T22:15:33.764Z,79.20
2019-05-01T22:18:09.648Z,79.10
2019-05-01T22:20:43.192Z,78.70
2019-05-01T22:23:17.025Z,78.30
2019-05-01T22:25:48.613Z,78.20
2019-05-01T22:28:26.762Z,78.00
2019-05-01T22:31:27.168Z,77.80
2019-05-01T22:34:07.798Z,77.50
2019-05-01T22:36:37.384Z,77.60
2019-05-01T22:39:08.007Z,77.20
2019-05-01T22:41:37.302Z,77.20
2019-05-01T22:44:07.379Z,76.80
2019-05-01T22:46:39.019Z,76.70
2019-05-01T22:49:07.633Z,76.70
2019-05-01T22:51:36.790Z,76.80
2019-05-01T22:54:05.964Z,76.50
2019-05-01T22:56:35.868Z,76.50
2019-05-01T22:59:05.141Z,76.40
2019-05-01T23:01:34.872Z,76.50
2019-05-01T23:04:12.019Z,76.80
2019-05-01T23:06:41.901Z,77.70
2019-05-01T23:09:11.975Z,78.60
2019-05-01T23:11:44.304Z,79.10
2019-05-01T23:14:13.569Z,79.80
2019-05-01T23:17:07.597Z,80.20
2019-05-01T23:19:37.163Z,80.50
2019-05-01T23:22:08.381Z,81.00
2019-05-01T23:24:37.641Z,81.00
2019-05-01T23:27:06.904Z,81.60
2019-05-01T23:29:36.273Z,81.70
2019-05-01T23:32:06.162Z,82.00
2019-05-01T23:34:35.536Z,82.40
2019-05-01T23:37:04.831Z,82.60
2019-05-01T23:39:39.781Z,82.60
2019-05-01T23:42:06.066Z,82.80
2019-05-01T23:44:38.084Z,83.20
2019-05-01T23:47:06.634Z,83.70
2019-05-01T23:49:36.195Z,83.80
2019-05-01T23:52:06.762Z,84.00
2019-05-01T23:54:36.046Z,84.20
2019-05-01T23:57:05.319Z,84.20
2019-05-01T23:59:34.602Z,84.30
